createdAt,value
2022-12-23T00:01:06.306Z,1.59
2022-12-23T00:03:35.082Z,1.61
2022-12-23T00:06:08.856Z,1.61
2022-12-23T00:08:37.488Z,1.62
2022-12-23T00:11:10.429Z,1.64
2022-12-23T00:13:57.157Z,1.64
2022-12-23T00:16:25.328Z,1.64
2022-12-23T00:18:54.952Z,1.64
2022-12-23T00:21:23.735Z,1.65
2022-12-23T00:23:51.947Z,1.67
2022-12-23T00:26:25.849Z,1.68
2022-12-23T00:28:57.947Z,1.69
2022-12-23T00:31:26.531Z,1.69
2022-12-23T00:33:54.858Z,1.70
2022-12-23T00:36:30.667Z,1.71
2022-12-23T00:39:18.359Z,1.73
2022-12-23T00:42:04.952Z,1.74
2022-12-23T00:44:33.153Z,1.75
2022-12-23T00:47:01.233Z,1.75
2022-12-23T00:49:44.709Z,1.73
2022-12-23T00:52:15.907Z,1.73
2022-12-23T00:54:44.258Z,1.73
2022-12-23T00:57:12.313Z,1.71
2022-12-23T00:59:40.420Z,1.70
2022-12-23T01:02:30.181Z,1.70
2022-12-23T01:05:17.188Z,1.69
2022-12-23T01:07:45.192Z,1.68
2022-12-23T01:10:13.364Z,1.65
2022-12-23T01:12:41.458Z,1.62
2022-12-23T01:15:09.903Z,1.61
2022-12-23T01:17:37.999Z,1.59
2022-12-23T01:20:06.556Z,1.57
2022-12-23T01:22:34.664Z,1.55
2022-12-23T01:25:03.062Z,1.54
2022-12-23T01:27:31.178Z,1.53
2022-12-23T01:29:59.359Z,1.50
2022-12-23T01:32:27.360Z,1.48
2022-12-23T01:34:55.327Z,1.46
2022-12-23T01:37:23.510Z,1.44
2022-12-23T01:39:51.705Z,1.43
2022-12-23T01:42:39.861Z,1.42
2022-12-23T01:45:19.121Z,1.39
2022-12-23T01:47:58.561Z,1.38
2022-12-23T01:50:29.631Z,1.35
2022-12-23T01:53:15.474Z,1.32
2022-12-23T01:55:52.151Z,1.30
2022-12-23T01:58:25.975Z,1.28
2022-12-23T02:01:15.639Z,1.27
2022-12-23T02:03:46.693Z,1.26
2022-12-23T02:06:46.598Z,1.24
2022-12-23T02:09:21.461Z,1.23
2022-12-23T02:12:09.752Z,1.22
2022-12-23T02:15:14.624Z,1.22
2022-12-23T02:17:57.974Z,1.20
2022-12-23T02:20:53.677Z,1.19
2022-12-23T02:23:33.875Z,1.17
2022-12-23T02:26:10.807Z,1.15
2022-12-23T02:29:00.524Z,1.13
2022-12-23T02:31:49.516Z,1.12
2022-12-23T02:34:40.617Z,1.11
2022-12-23T02:37:19.305Z,1.09
2022-12-23T02:40:22.860Z,1.09
2022-12-23T02:42:58.937Z,1.06
2022-12-23T02:45:35.687Z,1.05
2022-12-23T02:48:11.501Z,1.04
2022-12-23T02:50:43.062Z,1.03
2022-12-23T02:53:17.881Z,1.03
2022-12-23T02:55:49.206Z,1.04
2022-12-23T02:58:21.343Z,1.05
2022-12-23T03:00:50.777Z,1.07
2022-12-23T03:03:21.405Z,1.07
2022-12-23T03:05:51.618Z,1.04
2022-12-23T03:08:26.923Z,1.04
2022-12-23T03:11:07.750Z,1.05
2022-12-23T03:14:13.194Z,1.08
2022-12-23T03:16:56.608Z,1.07
2022-12-23T03:19:47.525Z,1.03
2022-12-23T03:22:27.484Z,0.96
2022-12-23T03:25:11.532Z,0.92
2022-12-23T03:27:49.605Z,0.89
2022-12-23T03:30:19.836Z,0.85
2022-12-23T03:32:59.631Z,0.79
2022-12-23T03:35:34.512Z,0.74
2022-12-23T03:38:03.845Z,0.69
2022-12-23T03:40:45.366Z,0.64
2022-12-23T03:43:21.312Z,0.57
2022-12-23T03:45:54.931Z,0.49
2022-12-23T03:48:29.196Z,0.43
2022-12-23T03:51:03.130Z,0.40
2022-12-23T03:53:38.313Z,0.38
2022-12-23T03:56:26.295Z,0.39
2022-12-23T03:59:06.889Z,0.39
2022-12-23T04:01:41.157Z,0.41
2022-12-23T04:04:26.534Z,0.45
2022-12-23T04:07:01.117Z,0.50
2022-12-23T04:09:29.674Z,0.55
2022-12-23T04:11:58.953Z,0.58
2022-12-23T04:14:27.048Z,0.62
2022-12-23T04:16:59.326Z,0.66
2022-12-23T04:19:27.375Z,0.69
2022-12-23T04:21:57.248Z,0.73
2022-12-23T04:24:25.484Z,0.76
2022-12-23T04:26:53.471Z,0.78
2022-12-23T04:29:21.536Z,0.78
2022-12-23T04:31:49.634Z,0.81
2022-12-23T04:34:18.480Z,0.82
2022-12-23T04:36:46.578Z,0.85
2022-12-23T04:39:14.866Z,0.89
2022-12-23T04:41:42.826Z,0.93
2022-12-23T04:44:10.982Z,0.96
2022-12-23T04:46:39.335Z,0.99
2022-12-23T04:49:07.467Z,0.99
2022-12-23T04:51:35.856Z,1.01
2022-12-23T04:54:04.112Z,1.02
2022-12-23T04:56:32.274Z,1.05
2022-12-23T04:59:02.339Z,1.07
2022-12-23T05:01:30.596Z,1.10
2022-12-23T05:03:58.786Z,1.11
2022-12-23T05:06:26.877Z,1.10
2022-12-23T05:08:54.939Z,1.10
2022-12-23T05:11:23.014Z,1.09
2022-12-23T05:13:51.907Z,1.09
2022-12-23T05:16:19.987Z,1.10
2022-12-23T05:18:48.145Z,1.11
2022-12-23T05:21:16.276Z,1.12
2022-12-23T05:23:44.421Z,1.14
2022-12-23T05:26:12.387Z,1.16
2022-12-23T05:28:40.497Z,1.17
2022-12-23T05:31:08.795Z,1.18
2022-12-23T05:33:36.998Z,1.19
2022-12-23T05:36:05.988Z,1.21
2022-12-23T05:38:34.058Z,1.22
2022-12-23T05:41:02.544Z,1.22
2022-12-23T05:43:30.652Z,1.22
2022-12-23T05:45:58.725Z,1.22
2022-12-23T05:48:26.838Z,1.22
2022-12-23T05:50:55.018Z,1.22
2022-12-23T05:53:24.007Z,1.22
2022-12-23T05:55:52.156Z,1.21
2022-12-23T05:58:20.275Z,1.21
2022-12-23T06:00:48.356Z,1.21
2022-12-23T06:03:16.991Z,1.22
2022-12-23T06:05:45.455Z,1.23
2022-12-23T06:08:13.679Z,1.23
2022-12-23T06:10:41.699Z,1.23
2022-12-23T06:13:09.770Z,1.23
2022-12-23T06:15:37.859Z,1.23
2022-12-23T06:18:06.247Z,1.21
2022-12-23T06:20:34.673Z,1.20
2022-12-23T06:23:02.633Z,1.20
2022-12-23T06:25:30.746Z,1.18
2022-12-23T06:27:59.699Z,1.16
2022-12-23T06:30:27.805Z,1.13
2022-12-23T06:32:55.942Z,1.10
2022-12-23T06:35:24.207Z,1.05
2022-12-23T06:37:55.079Z,1.01
2022-12-23T06:40:23.080Z,0.96
2022-12-23T06:42:51.099Z,0.93
2022-12-23T06:45:19.315Z,0.89
2022-12-23T06:47:47.374Z,0.85
2022-12-23T06:50:16.440Z,0.83
2022-12-23T06:52:46.183Z,0.80
2022-12-23T06:55:14.256Z,0.78
2022-12-23T06:57:42.367Z,0.75
2022-12-23T07:00:10.927Z,0.73
2022-12-23T07:02:39.078Z,0.71
2022-12-23T07:05:07.637Z,0.70
2022-12-23T07:07:35.902Z,0.71
2022-12-23T07:10:04.530Z,0.72
2022-12-23T07:12:32.741Z,0.72
2022-12-23T07:15:01.112Z,0.72
2022-12-23T07:17:29.884Z,0.79
2022-12-23T07:19:58.789Z,0.90
2022-12-23T07:22:27.095Z,1.03
2022-12-23T07:24:55.888Z,1.17
2022-12-23T07:27:24.171Z,1.35
2022-12-23T07:29:52.221Z,1.53
2022-12-23T07:32:20.381Z,1.73
2022-12-23T07:34:48.660Z,1.95
2022-12-23T07:37:16.826Z,2.17
2022-12-23T07:39:44.877Z,2.37
2022-12-23T07:45:01.917Z,2.78
2022-12-23T07:47:30.063Z,3.01
2022-12-23T07:49:58.100Z,3.23
2022-12-23T07:52:26.195Z,3.41
2022-12-23T07:54:54.215Z,3.65
2022-12-23T07:57:22.447Z,3.87
2022-12-23T07:59:51.116Z,4.09
2022-12-23T08:02:22.608Z,4.29
2022-12-23T08:04:52.189Z,4.46
2022-12-23T08:07:20.798Z,4.63
2022-12-23T08:09:48.993Z,4.80
2022-12-23T08:12:17.358Z,4.98
2022-12-23T08:14:47.026Z,5.14
2022-12-23T08:17:16.113Z,5.32
2022-12-23T08:19:44.304Z,5.53
2022-12-23T08:22:12.384Z,5.68
2022-12-23T08:24:40.531Z,5.74
2022-12-23T08:27:08.631Z,5.71
2022-12-23T08:29:40.136Z,5.70
2022-12-23T08:32:08.913Z,5.68
2022-12-23T08:34:37.112Z,5.60
2022-12-23T08:37:06.868Z,5.54
2022-12-23T08:39:35.698Z,5.65
2022-12-23T08:42:04.562Z,5.78
2022-12-23T08:44:33.031Z,5.95
2022-12-23T08:47:01.276Z,6.16
2022-12-23T08:49:29.801Z,6.37
2022-12-23T08:51:58.231Z,6.59
2022-12-23T08:54:27.233Z,6.76
2022-12-23T08:56:55.306Z,6.92
2022-12-23T08:59:23.467Z,7.08
2022-12-23T09:01:51.818Z,7.31
2022-12-23T09:04:20.006Z,7.43
2022-12-23T09:06:49.018Z,7.49
2022-12-23T09:09:17.826Z,7.49
2022-12-23T09:11:46.062Z,7.43
2022-12-23T09:14:14.253Z,7.36
2022-12-23T09:16:42.372Z,7.31
2022-12-23T09:19:10.466Z,7.27
2022-12-23T09:21:38.610Z,7.21
2022-12-23T09:24:06.965Z,7.01
2022-12-23T09:26:34.995Z,6.78
2022-12-23T09:29:02.973Z,6.52
2022-12-23T09:31:36.546Z,6.26
2022-12-23T09:34:06.102Z,6.09
2022-12-23T09:36:34.523Z,6.00
2022-12-23T09:39:03.099Z,5.85
2022-12-23T09:41:34.118Z,5.72
2022-12-23T09:44:33.708Z,5.55
2022-12-23T09:47:06.423Z,5.34
2022-12-23T09:49:35.083Z,5.18
2022-12-23T09:52:06.643Z,5.08
2022-12-23T09:54:46.012Z,5.08
2022-12-23T09:57:40.113Z,5.09
2022-12-23T10:00:13.634Z,5.12
2022-12-23T10:02:53.687Z,5.12
2022-12-23T10:05:25.086Z,5.15
2022-12-23T10:07:57.763Z,5.16
2022-12-23T10:10:31.891Z,5.16
2022-12-23T10:13:03.690Z,5.16
2022-12-23T10:15:44.020Z,5.16
2022-12-23T10:18:41.154Z,5.15
2022-12-23T10:21:46.964Z,5.15
2022-12-23T10:24:22.526Z,5.17
2022-12-23T10:27:32.308Z,5.21
2022-12-23T10:30:33.759Z,5.28
2022-12-23T10:33:11.307Z,5.34
2022-12-23T10:35:57.980Z,5.37
2022-12-23T10:39:02.808Z,5.40
2022-12-23T10:41:47.035Z,5.43
2022-12-23T10:44:46.349Z,5.43
2022-12-23T10:47:48.271Z,5.43
2022-12-23T10:50:34.906Z,5.42
2022-12-23T10:53:10.701Z,5.39
2022-12-23T10:55:39.859Z,5.35
2022-12-23T10:58:17.694Z,5.31
2022-12-23T11:00:52.172Z,5.31
2022-12-23T11:03:30.074Z,5.33
2022-12-23T11:05:59.530Z,5.37
2022-12-23T11:08:30.955Z,5.41
2022-12-23T11:11:01.437Z,5.44
2022-12-23T11:13:32.496Z,5.47
2022-12-23T11:16:21.022Z,5.51
2022-12-23T11:18:53.309Z,5.57
2022-12-23T11:21:21.487Z,5.59
2022-12-23T11:24:14.013Z,5.63
2022-12-23T11:26:43.702Z,5.68
2022-12-23T11:29:23.006Z,5.72
2022-12-23T11:31:51.966Z,5.74
2022-12-23T11:34:24.288Z,5.77
2022-12-23T11:37:07.024Z,5.78
2022-12-23T11:39:37.553Z,5.76
2022-12-23T11:42:20.624Z,5.76
2022-12-23T11:44:52.917Z,5.73
2022-12-23T11:47:29.290Z,5.71
2022-12-23T11:50:01.306Z,5.70
2022-12-23T11:52:32.703Z,5.69
2022-12-23T11:55:05.930Z,5.65
2022-12-23T11:57:43.044Z,5.61
2022-12-23T12:00:25.200Z,5.56
2022-12-23T12:02:56.631Z,5.55
2022-12-23T12:05:33.788Z,5.56
2022-12-23T12:08:11.700Z,5.56
2022-12-23T12:10:41.918Z,5.57
2022-12-23T12:13:28.171Z,5.60
2022-12-23T12:16:05.275Z,5.63
2022-12-23T12:18:35.005Z,5.65
2022-12-23T12:21:10.142Z,5.67
2022-12-23T12:24:08.286Z,5.70
2022-12-23T12:26:41.352Z,5.73
2022-12-23T12:29:15.409Z,5.75
2022-12-23T12:31:48.314Z,5.75
2022-12-23T12:34:52.150Z,5.74
2022-12-23T12:37:26.364Z,5.75
2022-12-23T12:39:58.333Z,5.77
2022-12-23T12:42:41.013Z,5.75
2022-12-23T12:45:15.263Z,5.74
2022-12-23T12:47:54.474Z,5.72
2022-12-23T12:50:33.388Z,5.67
2022-12-23T12:53:14.781Z,5.61
2022-12-23T12:55:50.455Z,5.58
2022-12-23T12:58:21.464Z,5.57
2022-12-23T13:01:15.962Z,5.58
2022-12-23T13:03:43.914Z,5.61
2022-12-23T13:06:38.479Z,5.62
2022-12-23T13:09:37.167Z,5.60
2022-12-23T13:12:21.228Z,5.54
2022-12-23T13:15:03.183Z,5.48
2022-12-23T13:18:13.094Z,5.41
2022-12-23T13:20:52.718Z,5.35
2022-12-23T13:23:46.358Z,5.30
2022-12-23T13:26:40.005Z,5.25
2022-12-23T13:29:28.727Z,5.22
2022-12-23T13:32:03.589Z,5.20
2022-12-23T13:34:48.045Z,5.18
2022-12-23T13:37:32.206Z,5.17
2022-12-23T13:40:08.383Z,5.16
2022-12-23T13:42:44.087Z,5.12
2022-12-23T13:45:18.173Z,5.08
2022-12-23T13:48:30.928Z,5.04
2022-12-23T13:51:16.874Z,4.96
2022-12-23T13:54:05.002Z,4.91
2022-12-23T13:56:45.243Z,4.89
2022-12-23T13:59:16.407Z,4.88
2022-12-23T14:01:48.098Z,4.85
2022-12-23T14:04:54.543Z,4.81
2022-12-23T14:07:24.141Z,4.77
2022-12-23T14:09:56.543Z,4.75
2022-12-23T14:12:36.885Z,4.74
2022-12-23T14:15:23.634Z,4.74
2022-12-23T14:18:31.015Z,4.74
2022-12-23T14:21:11.415Z,4.74
2022-12-23T14:24:04.756Z,4.71
2022-12-23T14:26:51.701Z,4.70
2022-12-23T14:29:38.493Z,4.67
2022-12-23T14:32:25.056Z,4.65
2022-12-23T14:35:24.165Z,4.60
2022-12-23T14:38:23.256Z,4.54
2022-12-23T14:41:17.159Z,4.46
2022-12-23T14:43:45.254Z,4.40
2022-12-23T14:46:36.153Z,4.34
2022-12-23T14:49:38.109Z,4.27
2022-12-23T14:52:39.349Z,4.19
2022-12-23T14:55:32.960Z,4.08
2022-12-23T14:58:18.870Z,4.01
2022-12-23T15:00:56.605Z,3.94
2022-12-23T15:03:24.718Z,3.88
2022-12-23T15:05:53.079Z,3.81
2022-12-23T15:08:35.765Z,3.74
2022-12-23T15:11:05.524Z,3.67
2022-12-23T15:13:34.344Z,3.58
2022-12-23T15:16:02.594Z,3.51
2022-12-23T15:18:30.828Z,3.43
2022-12-23T15:21:04.727Z,3.35
2022-12-23T15:23:33.418Z,3.26
2022-12-23T15:26:02.405Z,3.19
2022-12-23T15:28:40.383Z,3.11
2022-12-23T15:31:28.714Z,3.01
2022-12-23T15:34:03.621Z,2.91
2022-12-23T15:36:37.321Z,2.81
2022-12-23T15:39:10.224Z,2.72
2022-12-23T15:41:41.737Z,2.65
2022-12-23T15:44:14.414Z,2.59
2022-12-23T15:46:42.470Z,2.52
2022-12-23T15:49:13.941Z,2.46
2022-12-23T15:52:07.603Z,2.40
2022-12-23T15:54:45.562Z,2.32
2022-12-23T15:57:20.637Z,2.28
2022-12-23T15:59:49.210Z,2.23
2022-12-23T16:02:59.539Z,2.18
2022-12-23T16:05:38.612Z,2.12
2022-12-23T16:08:21.743Z,2.08
2022-12-23T16:11:01.066Z,2.02
2022-12-23T16:13:29.218Z,1.97
2022-12-23T16:16:38.012Z,1.91
2022-12-23T16:19:26.793Z,1.84
2022-12-23T16:21:55.066Z,1.76
2022-12-23T16:24:23.115Z,1.70
2022-12-23T16:26:51.267Z,1.63
2022-12-23T16:29:19.534Z,1.56
2022-12-23T16:31:52.280Z,1.50
2022-12-23T16:34:25.901Z,1.44
2022-12-23T16:36:53.970Z,1.40
2022-12-23T16:39:23.356Z,1.33
2022-12-23T16:41:52.104Z,1.28
2022-12-23T16:44:21.209Z,1.24
2022-12-23T16:46:51.108Z,1.20
2022-12-23T16:49:26.584Z,1.16
2022-12-23T16:51:57.845Z,1.13
2022-12-23T16:54:25.972Z,1.10
2022-12-23T16:56:54.114Z,1.08
2022-12-23T16:59:22.592Z,1.07
2022-12-23T17:01:51.303Z,1.07
2022-12-23T17:04:19.360Z,1.06
2022-12-23T17:06:47.542Z,1.06
2022-12-23T17:09:15.772Z,1.05
2022-12-23T17:11:47.776Z,1.05
2022-12-23T17:14:19.351Z,1.05
2022-12-23T17:16:48.493Z,1.05
2022-12-23T17:19:23.358Z,1.07
2022-12-23T17:21:59.377Z,1.07
2022-12-23T17:24:28.022Z,1.08
2022-12-23T17:26:57.600Z,1.08
2022-12-23T17:29:25.639Z,1.08
2022-12-23T17:31:54.656Z,1.08
2022-12-23T17:34:24.463Z,1.07
2022-12-23T17:36:53.117Z,1.07
2022-12-23T17:39:22.393Z,1.06
2022-12-23T17:41:50.691Z,1.05
2022-12-23T17:44:19.107Z,1.04
2022-12-23T17:46:47.399Z,1.04
2022-12-23T17:49:15.579Z,1.03
2022-12-23T17:51:43.797Z,1.03
2022-12-23T17:54:25.261Z,1.02
2022-12-23T17:56:53.473Z,1.02
2022-12-23T17:59:22.022Z,1.03
2022-12-23T18:01:50.698Z,1.04
2022-12-23T18:04:25.851Z,1.05
2022-12-23T18:07:04.071Z,1.07
2022-12-23T18:09:32.212Z,1.09
2022-12-23T18:12:00.440Z,1.10
2022-12-23T18:14:28.571Z,1.11
2022-12-23T18:16:56.621Z,1.13
2022-12-23T18:19:25.263Z,1.16
2022-12-23T18:21:53.271Z,1.19
2022-12-23T18:24:21.383Z,1.23
2022-12-23T18:26:50.413Z,1.28
2022-12-23T18:29:18.674Z,1.32
2022-12-23T18:31:51.549Z,1.38
2022-12-23T18:34:21.256Z,1.42
2022-12-23T18:36:51.938Z,1.46
2022-12-23T18:39:21.192Z,1.48
2022-12-23T18:41:49.377Z,1.53
2022-12-23T18:44:21.376Z,1.55
2022-12-23T18:46:50.687Z,1.57
2022-12-23T18:49:18.799Z,1.58
2022-12-23T18:51:47.196Z,1.59
2022-12-23T18:54:16.463Z,1.60
2022-12-23T18:56:44.547Z,1.61
2022-12-23T18:59:21.341Z,1.61
2022-12-23T19:01:52.348Z,1.61
2022-12-23T19:04:20.588Z,1.61
2022-12-23T19:06:48.698Z,1.62
2022-12-23T19:09:22.396Z,1.62
2022-12-23T19:11:52.507Z,1.64
2022-12-23T19:14:20.584Z,1.65
2022-12-23T19:16:52.021Z,1.67
2022-12-23T19:19:21.946Z,1.69
2022-12-23T19:21:50.121Z,1.71
2022-12-23T19:24:18.380Z,1.74
2022-12-23T19:26:46.530Z,1.76
2022-12-23T19:29:14.612Z,1.78
2022-12-23T19:31:42.874Z,1.80
2022-12-23T19:34:15.083Z,1.84
2022-12-23T19:36:44.289Z,1.86
2022-12-23T19:39:16.813Z,1.90
2022-12-23T19:41:45.206Z,1.93
2022-12-23T19:44:13.665Z,1.97
2022-12-23T19:46:41.766Z,2.02
2022-12-23T19:49:15.649Z,2.08
2022-12-23T19:51:45.884Z,2.13
2022-12-23T19:54:13.973Z,2.18
2022-12-23T19:56:42.144Z,2.23
2022-12-23T19:59:10.408Z,2.29
2022-12-23T20:01:38.394Z,2.34
2022-12-23T20:04:06.601Z,2.37
2022-12-23T20:06:38.331Z,2.42
2022-12-23T20:09:08.426Z,2.47
2022-12-23T20:11:42.177Z,2.50
2022-12-23T20:14:11.948Z,2.54
2022-12-23T20:16:40.979Z,2.57
2022-12-23T20:19:09.084Z,2.61
2022-12-23T20:21:37.580Z,2.65
2022-12-23T20:24:06.363Z,2.70
2022-12-23T20:26:34.659Z,2.76
2022-12-23T20:29:03.142Z,2.79
2022-12-23T20:31:33.398Z,2.81
2022-12-23T20:34:02.511Z,2.84
2022-12-23T20:36:33.166Z,2.86
2022-12-23T20:39:03.490Z,2.87
2022-12-23T20:41:32.936Z,2.86
2022-12-23T20:46:49.209Z,2.87
2022-12-23T20:49:17.263Z,2.89
2022-12-23T20:51:45.322Z,2.90
2022-12-23T20:54:13.281Z,2.92
2022-12-23T20:56:41.207Z,2.93
2022-12-23T20:59:09.180Z,2.93
2022-12-23T21:01:39.900Z,2.92
2022-12-23T21:04:16.001Z,2.91
2022-12-23T21:06:44.699Z,2.92
2022-12-23T21:09:15.438Z,2.91
2022-12-23T21:11:46.563Z,2.91
2022-12-23T21:14:15.393Z,2.90
2022-12-23T21:16:43.920Z,2.90
2022-12-23T21:19:20.791Z,2.88
2022-12-23T21:21:50.041Z,2.85
2022-12-23T21:24:19.101Z,2.84
2022-12-23T21:26:55.538Z,2.84
2022-12-23T21:29:27.201Z,2.82
2022-12-23T21:31:55.583Z,2.80
2022-12-23T21:34:23.969Z,2.77
2022-12-23T21:36:52.038Z,2.76
2022-12-23T21:39:20.756Z,2.74
2022-12-23T21:41:51.560Z,2.72
2022-12-23T21:44:19.923Z,2.70
2022-12-23T21:46:50.275Z,2.69
2022-12-23T21:49:19.624Z,2.67
2022-12-23T21:51:48.044Z,2.65
2022-12-23T21:54:16.026Z,2.63
2022-12-23T21:56:44.029Z,2.60
2022-12-23T21:59:14.136Z,2.57
2022-12-23T22:01:43.125Z,2.53
2022-12-23T22:04:12.058Z,2.48
2022-12-23T22:06:44.771Z,2.43
2022-12-23T22:09:14.746Z,2.38
2022-12-23T22:11:43.458Z,2.34
2022-12-23T22:14:14.539Z,2.30
2022-12-23T22:16:42.788Z,2.26
2022-12-23T22:19:11.775Z,2.24
2022-12-23T22:21:40.014Z,2.23
2022-12-23T22:24:08.853Z,2.22
2022-12-23T22:26:37.142Z,2.21
2022-12-23T22:29:07.109Z,2.20
2022-12-23T22:31:46.044Z,2.19
2022-12-23T22:34:20.593Z,2.18
2022-12-23T22:36:49.590Z,2.17
2022-12-23T22:39:22.045Z,2.16
2022-12-23T22:41:51.810Z,2.15
2022-12-23T22:44:21.176Z,2.13
2022-12-23T22:46:49.488Z,2.11
2022-12-23T22:49:18.127Z,2.10
2022-12-23T22:51:46.525Z,2.09
2022-12-23T22:54:14.720Z,2.07
2022-12-23T22:56:42.879Z,2.05
2022-12-23T22:59:20.297Z,2.03
2022-12-23T23:01:50.252Z,2.00
2022-12-23T23:04:19.114Z,1.97
2022-12-23T23:06:47.246Z,1.95
2022-12-23T23:09:18.351Z,1.93
2022-12-23T23:11:46.913Z,1.90
2022-12-23T23:14:15.470Z,1.88
2022-12-23T23:16:43.593Z,1.86
2022-12-23T23:19:12.174Z,1.84
2022-12-23T23:21:40.208Z,1.80
2022-12-23T23:24:08.774Z,1.79
2022-12-23T23:26:37.034Z,1.79
2022-12-23T23:29:05.130Z,1.78
2022-12-23T23:31:42.937Z,1.77
2022-12-23T23:34:12.593Z,1.77
2022-12-23T23:36:40.742Z,1.77
2022-12-23T23:39:11.078Z,1.76
2022-12-23T23:41:39.091Z,1.76
2022-12-23T23:44:07.089Z,1.76
2022-12-23T23:46:35.206Z,1.75
2022-12-23T23:49:03.770Z,1.75
2022-12-23T23:51:31.830Z,1.74
2022-12-23T23:53:59.832Z,1.74
2022-12-23T23:56:33.876Z,1.74
2022-12-23T23:59:06.645Z,1.74
